Terminal Aerodrome Forecast
Issued by NWS

Home | Current Version | Previous Version | Text Only | Print | Product List | Glossary On
Versions: 1 2 3 4 5 6 7 8 9 10 11 12 13 14
000
FTUS45 KRIW 181123
TAFLND
TAF
KLND 181123Z 1812/1912 VRB06KT P6SM BKN200
     FM181600 25008KT P6SM BKN200 WS020/29030KT
     FM190200 24008KT P6SM BKN200=

USA.gov is the U.S. government's official web portal to all federal, state and local government web resources and services.